Time;durP1;ratioP1;P1;durP2;ratioP2;P2;SDS_P1;SDS_P2;PMS_P1;PMS_P2;Temp;Humidity;BMP_temperature;BMP_pressure;BME280_temperature;BME280_humidity;BME280_pressure;Samples;Min_cycle;Max_cycle;Signal;HPM_P1;HPM_P2
2022/12/06 00:25:53;;;;;;;4.82;1.10;;;5.20;99.90;;;;;;6418514;22;20022;-91
2022/12/06 00:28:19;;;;;;;5.20;1.27;;;5.20;99.90;;;;;;6388918;22;20049;-96
2022/12/06 00:30:44;;;;;;;3.73;1.33;;;5.20;99.90;;;;;;6359072;22;20010;-96
2022/12/06 00:33:10;;;;;;;3.03;0.87;;;5.20;99.90;;;;;;6357349;22;20018;-95
2022/12/06 00:35:36;;;;;;;4.33;0.97;;;5.20;99.90;;;;;;6356539;22;20009;-96
2022/12/06 00:38:28;;;;;;;2.13;0.43;;;5.20;99.90;;;;;;6332029;22;20021;-96
2022/12/06 00:44:35;;;;;;;4.07;0.70;;;5.30;99.90;;;;;;6413254;22;20556;-92
2022/12/06 00:47:00;;;;;;;1.90;0.50;;;5.20;99.90;;;;;;6360414;22;20017;-96
2022/12/06 00:49:26;;;;;;;1.63;0.40;;;5.20;99.90;;;;;;6357431;22;20057;-96
2022/12/06 00:51:52;;;;;;;1.33;0.50;;;5.20;99.90;;;;;;6356039;22;20022;-94
2022/12/06 00:54:42;;;;;;;1.87;0.30;;;5.20;99.90;;;;;;6357940;22;20017;-93
2022/12/06 00:57:07;;;;;;;2.75;0.63;;;5.20;99.90;;;;;;6383232;22;20037;-96
2022/12/06 00:59:33;;;;;;;1.90;0.57;;;5.20;99.90;;;;;;6330657;22;20025;-91
2022/12/06 01:02:18;;;;;;;1.93;0.57;;;5.20;99.90;;;;;;6356536;22;20010;-96
2022/12/06 01:21:57;;;;;;;0.82;0.30;;;5.10;99.90;;;;;;6370009;22;20082;-93
2022/12/06 01:24:23;;;;;;;1.00;0.30;;;5.20;99.90;;;;;;6320438;22;20092;-96
2022/12/06 01:26:48;;;;;;;2.20;0.70;;;5.10;99.90;;;;;;6321079;22;20018;-96
2022/12/06 01:29:14;;;;;;;1.03;0.23;;;5.10;99.90;;;;;;6321414;22;20435;-95
2022/12/06 01:31:42;;;;;;;0.33;0.20;;;5.10;99.90;;;;;;6319263;22;20018;-93
2022/12/06 01:37:51;;;;;;;0.63;0.17;;;5.20;99.90;;;;;;6277155;22;20050;-96
2022/12/06 01:40:17;;;;;;;1.07;0.30;;;5.10;99.90;;;;;;6293631;22;20022;-96
2022/12/06 01:42:42;;;;;;;1.37;0.40;;;5.20;99.90;;;;;;6294788;22;20006;-96
2022/12/06 01:45:09;;;;;;;0.70;0.30;;;5.20;99.90;;;;;;6318755;22;20015;-96
2022/12/06 01:48:13;;;;;;;1.23;0.30;;;5.20;99.90;;;;;;6318816;22;20026;-93
2022/12/06 01:50:41;;;;;;;1.23;0.30;;;5.20;99.90;;;;;;6300260;22;20120;-96
2022/12/06 01:56:28;;;;;;;0.95;0.30;;;5.10;99.90;;;;;;6327364;22;20022;-93
2022/12/06 01:59:58;;;;;;;0.57;0.30;;;5.20;99.90;;;;;;6318838;22;20018;-96
2022/12/06 02:02:24;;;;;;;0.68;0.20;;;5.10;99.90;;;;;;6302081;22;20509;-95
2022/12/06 02:04:51;;;;;;;4.00;0.63;;;5.20;99.90;;;;;;6318451;22;20015;-94
2022/12/06 02:07:18;;;;;;;0.50;0.20;;;5.20;99.90;;;;;;6318294;22;20026;-96
2022/12/06 02:09:44;;;;;;;0.70;0.30;;;5.10;99.90;;;;;;6318328;22;20089;-96
2022/12/06 02:12:12;;;;;;;;;;;5.10;99.90;;;;;;6318375;22;20046;-96
2022/12/06 02:14:38;;;;;;;0.87;0.30;;;5.10;99.90;;;;;;6318207;22;19970;-96
2022/12/06 02:25:28;;;;;;;1.40;0.40;;;5.10;99.90;;;;;;6405229;22;20446;-96
2022/12/06 02:28:16;;;;;;;2.38;0.55;;;5.10;99.90;;;;;;6390302;22;20041;-96
2022/12/06 02:36:27;;;;;;;2.17;0.35;;;5.10;99.90;;;;;;6340043;22;20030;-96
2022/12/06 02:39:21;;;;;;;0.77;0.30;;;5.10;99.90;;;;;;6190894;23;20021;-96
2022/12/06 02:42:01;;;;;;;1.90;0.40;;;5.10;99.90;;;;;;6139859;23;20017;-91
2022/12/06 02:44:34;;;;;;;0.32;0.20;;;5.10;99.90;;;;;;6288076;22;20096;-96
2022/12/06 02:47:02;;;;;;;0.73;0.35;;;5.10;99.90;;;;;;6290357;22;20015;-95
2022/12/06 02:49:32;;;;;;;0.77;0.30;;;5.10;99.90;;;;;;6292315;22;20018;-95
2022/12/06 02:51:58;;;;;;;3.83;0.50;;;5.10;99.90;;;;;;6297666;22;20039;-96
2022/12/06 02:58:34;;;;;;;1.25;0.47;;;5.10;99.90;;;;;;6356427;22;20052;-92
2022/12/06 03:01:03;;;;;;;1.00;0.40;;;5.00;99.90;;;;;;6300258;22;20015;-95
2022/12/06 03:03:47;;;;;;;3.03;0.50;;;5.00;99.90;;;;;;6300417;22;20081;-92
2022/12/06 03:06:34;;;;;;;1.95;0.45;;;4.90;99.90;;;;;;6302995;22;20026;-95
2022/12/06 03:09:43;;;;;;;2.40;0.30;;;4.90;99.90;;;;;;6301687;22;20026;-96
2022/12/06 03:12:24;;;;;;;1.65;0.47;;;4.90;99.90;;;;;;6289317;22;20040;-95
2022/12/06 03:15:13;;;;;;;3.60;0.50;;;4.90;99.90;;;;;;6288577;22;20025;-96
2022/12/06 03:18:10;;;;;;;0.80;0.43;;;4.80;99.90;;;;;;6287186;22;20037;-94
2022/12/06 03:20:48;;;;;;;1.42;0.43;;;4.80;99.90;;;;;;6286694;22;20031;-96
2022/12/06 03:23:19;;;;;;;1.25;0.47;;;4.80;99.90;;;;;;6287246;22;20015;-95
2022/12/06 03:25:47;;;;;;;1.77;0.60;;;4.80;99.90;;;;;;6286804;22;20015;-95
2022/12/06 03:28:15;;;;;;;1.20;0.40;;;4.80;99.90;;;;;;6287365;22;20014;-96
2022/12/06 03:31:10;;;;;;;2.85;0.50;;;4.80;99.90;;;;;;6287527;22;20198;-96
2022/12/06 03:33:42;;;;;;;1.13;0.40;;;4.80;99.90;;;;;;6286476;22;20098;-96
2022/12/06 03:36:11;;;;;;;1.20;0.50;;;4.80;99.90;;;;;;6285730;22;20023;-93
2022/12/06 03:38:46;;;;;;;1.02;0.43;;;4.80;99.90;;;;;;6286326;22;20018;-95
2022/12/06 03:41:13;;;;;;;2.08;0.43;;;4.80;99.90;;;;;;6286561;22;20022;-95
2022/12/06 03:43:39;;;;;;;0.77;0.30;;;4.80;99.90;;;;;;6286761;22;20015;-94
2022/12/06 03:46:13;;;;;;;1.47;0.50;;;4.90;99.90;;;;;;6286312;22;20025;-94
2022/12/06 03:48:54;;;;;;;1.30;0.50;;;4.90;99.90;;;;;;6286494;22;20011;-94
2022/12/06 03:51:27;;;;;;;1.67;0.50;;;4.90;99.90;;;;;;6286438;22;20015;-95
2022/12/06 03:53:56;;;;;;;2.10;0.50;;;4.90;99.90;;;;;;6287096;22;20435;-95
2022/12/06 03:56:24;;;;;;;1.95;0.40;;;4.90;99.90;;;;;;6314615;22;20098;-96
2022/12/06 03:59:18;;;;;;;0.95;0.20;;;4.90;99.90;;;;;;6288460;22;20461;-95
2022/12/06 04:01:44;;;;;;;1.02;0.30;;;4.90;99.90;;;;;;6288487;22;20033;-93
2022/12/06 04:04:09;;;;;;;1.47;0.40;;;4.90;99.90;;;;;;6288681;22;20010;-95
2022/12/06 04:11:55;;;;;;;0.82;0.25;;;4.80;99.90;;;;;;6371677;22;20057;-95
2022/12/06 04:14:21;;;;;;;1.23;0.37;;;4.90;99.90;;;;;;6345215;22;20015;-95
2022/12/06 04:19:31;;;;;;;0.40;0.10;;;4.90;99.90;;;;;;6371243;22;20018;-91
2022/12/06 04:26:08;;;;;;;;;;;4.90;99.90;;;;;;6373585;22;20458;-91
2022/12/06 04:39:52;;;;;;;1.70;0.47;;;4.70;99.90;;;;;;6373190;22;20015;-95
2022/12/06 04:45:33;;;;;;;0.47;0.25;;;4.60;99.90;;;;;;6376790;22;20018;-96
2022/12/06 04:47:58;;;;;;;1.50;0.30;;;4.60;99.90;;;;;;6345728;22;20032;-96
2022/12/06 04:50:24;;;;;;;1.87;0.40;;;4.60;99.90;;;;;;6345347;22;20018;-96
2022/12/06 04:53:12;;;;;;;0.20;0.10;;;4.60;99.90;;;;;;6359505;22;20002;-96
2022/12/06 04:55:37;;;;;;;2.22;0.40;;;4.50;99.90;;;;;;6365712;22;20010;-94
2022/12/06 04:58:06;;;;;;;0.47;0.20;;;4.40;99.90;;;;;;6365017;22;20022;-94
2022/12/06 05:05:43;;;;;;;1.02;0.30;;;4.30;99.90;;;;;;6372072;22;20064;-92
2022/12/06 05:12:11;;;;;;;0.57;0.20;;;4.20;99.90;;;;;;6377302;22;20113;-96
2022/12/06 05:14:37;;;;;;;2.30;0.40;;;4.20;99.90;;;;;;6324699;22;20062;-95
2022/12/06 05:19:28;;;;;;;1.97;0.30;;;4.00;99.90;;;;;;6360700;22;19998;-93
2022/12/06 05:33:11;;;;;;;1.10;0.30;;;3.80;99.90;;;;;;6389819;22;20049;-89
2022/12/06 05:35:38;;;;;;;5.07;0.50;;;3.80;99.90;;;;;;6390889;22;20021;-91
2022/12/06 05:40:40;;;;;;;0.88;0.40;;;3.70;99.90;;;;;;6394398;22;20014;-92
2022/12/06 05:56:16;;;;;;;1.13;0.40;;;3.50;99.90;;;;;;6356906;22;20026;-94
2022/12/06 05:58:44;;;;;;;2.08;0.52;;;3.50;99.90;;;;;;6331746;22;20023;-96
2022/12/06 06:01:10;;;;;;;1.42;0.50;;;3.50;99.90;;;;;;6331384;22;20030;-93
2022/12/06 06:06:11;;;;;;;1.35;0.40;;;3.50;99.90;;;;;;6378065;22;20026;-92
2022/12/06 06:08:37;;;;;;;2.17;0.47;;;3.50;99.90;;;;;;6332455;22;20019;-96
2022/12/06 06:11:06;;;;;;;2.90;0.50;;;3.50;99.90;;;;;;6335324;22;20018;-95
2022/12/06 06:13:32;;;;;;;1.90;0.50;;;3.50;99.90;;;;;;6334645;22;20045;-92
2022/12/06 06:15:58;;;;;;;1.70;0.40;;;3.50;99.90;;;;;;6334386;22;20300;-91
2022/12/06 06:18:23;;;;;;;1.33;0.40;;;3.50;99.90;;;;;;6311505;22;20046;-90
2022/12/06 06:23:33;;;;;;;1.85;0.50;;;3.50;99.90;;;;;;6367116;22;20241;-90
2022/12/06 06:25:58;;;;;;;3.13;0.70;;;3.50;99.90;;;;;;6340364;22;20028;-89
2022/12/06 06:28:27;;;;;;;1.57;0.47;;;3.40;99.90;;;;;;6306969;22;20014;-93
2022/12/06 06:30:53;;;;;;;3.05;0.52;;;3.40;99.90;;;;;;6321587;22;20014;-91
2022/12/06 06:33:20;;;;;;;2.93;0.50;;;3.40;99.90;;;;;;6298609;22;20021;-91
2022/12/06 06:36:14;;;;;;;1.38;0.50;;;3.40;99.90;;;;;;6299853;22;20014;-92
2022/12/06 06:38:39;;;;;;;2.50;0.40;;;3.40;99.90;;;;;;6338398;22;20021;-92
2022/12/06 06:43:40;;;;;;;2.33;0.60;;;3.40;99.90;;;;;;6347379;22;20363;-92
2022/12/06 06:46:09;;;;;;;1.77;0.60;;;3.50;99.90;;;;;;6396576;22;20018;-92
2022/12/06 06:48:38;;;;;;;2.28;0.90;;;3.50;99.90;;;;;;6393211;22;20022;-94
2022/12/06 06:51:37;;;;;;;2.83;0.68;;;3.50;99.90;;;;;;6395083;22;19998;-91
2022/12/06 07:25:08;;;;;;;2.78;0.95;;;3.10;99.90;;;;;;6386820;22;20025;-95
2022/12/06 07:27:35;;;;;;;2.23;0.70;;;3.10;99.90;;;;;;6409396;22;20026;-91
2022/12/06 07:30:03;;;;;;;3.17;0.70;;;3.00;99.90;;;;;;6327502;22;20010;-96
2022/12/06 07:32:33;;;;;;;2.28;0.60;;;3.00;99.90;;;;;;6325786;22;20023;-96
2022/12/06 07:34:59;;;;;;;2.53;0.93;;;3.00;99.90;;;;;;6330098;22;20018;-95
2022/12/06 07:37:24;;;;;;;1.58;0.57;;;2.90;99.90;;;;;;6327843;22;20020;-91
2022/12/06 07:39:50;;;;;;;3.97;0.70;;;2.90;99.90;;;;;;6360651;22;20018;-96
2022/12/06 07:45:40;;;;;;;2.28;0.90;;;2.90;99.90;;;;;;6377003;22;20075;-91
2022/12/06 07:48:05;;;;;;;2.08;0.63;;;2.90;99.90;;;;;;6324075;22;20014;-95
2022/12/06 07:50:32;;;;;;;2.40;0.85;;;3.00;99.90;;;;;;6299503;22;20014;-92
2022/12/06 07:52:58;;;;;;;1.53;0.70;;;3.00;99.90;;;;;;6299797;22;20518;-92
2022/12/06 07:55:23;;;;;;;2.33;0.75;;;3.00;99.90;;;;;;6295283;22;20098;-91
2022/12/06 07:57:49;;;;;;;3.53;0.77;;;3.00;99.90;;;;;;6268672;22;20018;-93
2022/12/06 08:00:15;;;;;;;2.57;1.00;;;3.00;99.90;;;;;;6322498;22;20050;-90
2022/12/06 08:07:57;;;;;;;2.45;0.60;;;2.90;99.90;;;;;;6377253;22;20442;-94
2022/12/06 08:10:28;;;;;;;4.30;1.55;;;3.00;99.90;;;;;;6301910;22;20038;-92
2022/12/06 08:12:53;;;;;;;3.40;0.95;;;3.00;99.90;;;;;;6329821;22;20053;-92
2022/12/06 08:15:19;;;;;;;2.20;0.77;;;3.00;99.90;;;;;;6347588;22;20455;-92
2022/12/06 08:17:45;;;;;;;2.90;0.73;;;3.10;99.90;;;;;;6295936;22;20047;-94
2022/12/06 08:25:22;;;;;;;2.38;0.80;;;3.20;99.90;;;;;;6385191;22;20014;-90
2022/12/06 08:35:42;;;;;;;4.97;0.93;;;3.30;99.90;;;;;;6394799;22;20097;-92
2022/12/06 08:45:57;;;;;;;3.58;1.65;;;3.40;99.90;;;;;;6387027;22;20029;-91
2022/12/06 08:48:23;;;;;;;3.75;0.93;;;3.50;99.90;;;;;;6358078;22;20018;-89
2022/12/06 08:50:52;;;;;;;3.05;0.98;;;3.50;99.90;;;;;;6322865;22;20443;-92
2022/12/06 08:53:23;;;;;;;2.38;1.00;;;3.60;99.90;;;;;;6296256;22;20019;-92
2022/12/06 08:56:20;;;;;;;2.47;0.75;;;3.60;99.90;;;;;;6261510;22;20023;-94
2022/12/06 08:58:46;;;;;;;3.00;0.90;;;3.70;99.90;;;;;;6261468;22;20019;-95
2022/12/06 10:05:57;;;;;;;5.22;1.60;;;4.70;99.90;;;;;;6408638;22;20417;-91
2022/12/06 10:09:14;;;;;;;4.57;1.60;;;4.70;99.90;;;;;;6378375;22;20014;-91
2022/12/06 10:11:49;;;;;;;3.50;0.98;;;4.70;99.90;;;;;;6314911;22;20014;-93
2022/12/06 10:18:02;;;;;;;3.58;0.90;;;4.80;99.90;;;;;;6403750;22;20017;-89
2022/12/06 10:20:37;;;;;;;;;;;4.80;99.90;;;;;;6375634;22;20343;-92
2022/12/06 10:23:28;;;;;;;1.98;0.90;;;4.90;99.90;;;;;;6375154;22;19914;-96
2022/12/06 10:26:14;;;;;;;2.55;0.80;;;4.90;99.90;;;;;;6375545;22;20014;-93
2022/12/06 10:29:00;;;;;;;1.77;0.68;;;5.00;99.90;;;;;;6375561;22;20101;-89
2022/12/06 10:35:56;;;;;;;2.92;0.90;;;5.10;99.90;;;;;;6403747;22;20438;-93
2022/12/06 10:38:38;;;;;;;2.75;0.77;;;5.10;99.90;;;;;;6404257;22;20049;-90
2022/12/06 10:41:10;;;;;;;2.83;0.80;;;5.10;99.90;;;;;;6378292;22;20461;-92
2022/12/06 10:43:53;;;;;;;2.38;0.80;;;5.10;99.90;;;;;;6377415;22;20018;-94
2022/12/06 10:47:05;;;;;;;1.90;0.70;;;5.10;99.90;;;;;;6374447;22;20017;-96
2022/12/06 10:49:54;;;;;;;1.45;0.70;;;5.20;99.90;;;;;;6377296;22;20074;-96
2022/12/06 10:52:28;;;;;;;3.50;0.90;;;5.20;99.90;;;;;;6375802;22;20507;-93
2022/12/06 10:55:06;;;;;;;3.38;0.80;;;5.20;99.90;;;;;;6374454;22;20381;-95
2022/12/06 10:57:47;;;;;;;3.35;0.80;;;5.20;99.90;;;;;;6373313;22;20413;-94
2022/12/06 11:00:18;;;;;;;2.50;0.85;;;5.20;99.90;;;;;;6375666;22;20010;-93
2022/12/06 11:03:10;;;;;;;5.50;1.10;;;5.20;99.90;;;;;;6374926;22;20392;-91
2022/12/06 11:06:15;;;;;;;2.22;1.00;;;5.20;99.90;;;;;;6374079;22;20013;-90
2022/12/06 11:08:56;;;;;;;2.20;0.80;;;5.30;99.90;;;;;;6372761;22;20079;-94
2022/12/06 11:11:35;;;;;;;2.95;1.02;;;5.30;99.90;;;;;;6372700;22;20071;-91
2022/12/06 11:14:10;;;;;;;3.40;1.00;;;5.30;99.90;;;;;;6372728;22;20376;-92
2022/12/06 11:16:41;;;;;;;3.05;0.95;;;5.30;99.90;;;;;;6373430;22;20059;-90
2022/12/06 11:19:28;;;;;;;2.85;1.05;;;5.40;99.90;;;;;;6374765;22;20016;-91
2022/12/06 11:22:19;;;;;;;3.53;1.05;;;5.40;99.90;;;;;;6374998;22;20050;-89
2022/12/06 11:24:56;;;;;;;2.47;0.80;;;5.50;99.90;;;;;;6374954;22;20477;-90
2022/12/06 11:27:32;;;;;;;3.13;0.82;;;5.60;99.90;;;;;;6374977;22;20137;-93
2022/12/06 11:30:05;;;;;;;4.40;0.90;;;5.60;99.90;;;;;;6375432;22;20071;-95
2022/12/06 11:32:33;;;;;;;3.33;0.82;;;5.60;99.90;;;;;;6374818;22;20017;-91
2022/12/06 11:35:00;;;;;;;1.05;0.55;;;5.60;99.90;;;;;;6348892;22;20308;-91
2022/12/06 11:37:29;;;;;;;1.02;0.40;;;5.60;99.90;;;;;;6374957;22;20074;-91
2022/12/06 11:40:06;;;;;;;2.15;0.63;;;5.70;99.90;;;;;;6375121;22;20014;-92
2022/12/06 11:42:32;;;;;;;1.60;0.70;;;5.70;99.90;;;;;;6375133;22;20088;-91
2022/12/06 11:45:31;;;;;;;1.20;0.53;;;5.60;99.90;;;;;;6375802;22;20014;-93
2022/12/06 11:48:01;;;;;;;1.85;0.57;;;5.60;99.90;;;;;;6374910;22;20330;-91
2022/12/06 11:53:46;;;;;;;1.88;0.50;;;5.70;99.90;;;;;;6402609;22;20021;-92
2022/12/06 11:56:25;;;;;;;1.65;0.73;;;5.80;99.90;;;;;;6374799;22;20439;-93
2022/12/06 12:00:04;;;;;;;4.80;0.93;;;5.80;99.90;;;;;;6375080;22;20521;-92
2022/12/06 12:02:47;;;;;;;1.37;0.70;;;5.90;99.90;;;;;;6394622;22;20028;-95
2022/12/06 12:05:16;;;;;;;2.08;0.70;;;6.00;99.90;;;;;;6351092;22;20243;-91
2022/12/06 12:07:44;;;;;;;1.17;0.57;;;6.00;99.90;;;;;;6374268;22;20010;-93
2022/12/06 12:10:28;;;;;;;3.72;1.02;;;6.10;99.90;;;;;;6374776;22;20018;-95
2022/12/06 12:19:06;;;;;;;3.33;0.90;;;6.20;99.90;;;;;;6391099;22;20029;-95
2022/12/06 12:22:01;;;;;;;4.90;1.20;;;6.30;99.90;;;;;;6376724;22;20067;-94
2022/12/06 12:25:21;;;;;;;3.42;0.90;;;6.40;99.90;;;;;;6376839;22;20014;-92
2022/12/06 12:28:00;;;;;;;4.13;0.90;;;6.40;99.90;;;;;;6345442;22;20017;-92
2022/12/06 12:30:38;;;;;;;2.80;0.90;;;6.50;99.90;;;;;;6376411;22;20017;-92
2022/12/06 12:33:06;;;;;;;2.88;0.90;;;6.50;99.90;;;;;;6376599;22;20053;-93
2022/12/06 12:35:41;;;;;;;2.72;1.00;;;6.60;99.90;;;;;;6376779;22;20428;-94
2022/12/06 12:38:10;;;;;;;2.25;0.77;;;6.60;99.90;;;;;;6376214;22;20046;-91
2022/12/06 12:41:00;;;;;;;1.85;0.70;;;6.60;99.90;;;;;;6376512;22;20014;-94
2022/12/06 12:43:52;;;;;;;2.72;1.00;;;6.60;99.90;;;;;;6376396;22;20021;-89
2022/12/06 12:46:28;;;;;;;1.13;0.50;;;6.60;99.90;;;;;;6353075;22;20511;-94
2022/12/06 12:49:28;;;;;;;2.60;0.90;;;6.60;99.90;;;;;;6376382;22;20066;-92
2022/12/06 12:51:55;;;;;;;3.47;0.68;;;6.60;99.90;;;;;;6375873;22;20101;-95
2022/12/06 12:54:36;;;;;;;2.88;0.60;;;6.60;99.90;;;;;;6376355;22;20066;-90
2022/12/06 12:57:12;;;;;;;1.95;0.57;;;6.60;99.90;;;;;;6376052;22;20472;-95
2022/12/06 12:59:39;;;;;;;2.67;0.80;;;6.60;99.90;;;;;;6376028;22;20010;-93
2022/12/06 13:02:28;;;;;;;4.05;1.00;;;6.50;99.90;;;;;;6376311;22;20036;-93
2022/12/06 13:05:20;;;;;;;3.38;0.75;;;6.50;99.90;;;;;;6376156;22;20048;-94
2022/12/06 13:07:48;;;;;;;2.38;0.90;;;6.50;99.90;;;;;;6376036;22;20162;-90
2022/12/06 13:10:38;;;;;;;1.90;0.85;;;6.50;99.90;;;;;;6350503;22;20480;-95
2022/12/06 13:13:20;;;;;;;2.10;0.65;;;6.50;99.90;;;;;;6364440;22;20320;-95
2022/12/06 13:15:52;;;;;;;4.13;0.95;;;6.50;99.90;;;;;;6376921;22;20025;-91
2022/12/06 13:18:28;;;;;;;3.47;1.10;;;6.40;99.90;;;;;;6376619;22;20346;-93
2022/12/06 13:20:57;;;;;;;4.07;0.80;;;6.40;99.90;;;;;;6376107;22;20010;-91
2022/12/06 13:23:30;;;;;;;3.10;0.85;;;6.40;99.90;;;;;;6376580;22;20016;-89
2022/12/06 13:26:23;;;;;;;1.83;0.60;;;6.40;99.90;;;;;;6375909;22;20332;-91
2022/12/06 13:28:56;;;;;;;3.20;0.90;;;6.40;99.90;;;;;;6375924;22;20334;-96
2022/12/06 13:44:39;;;;;;;1.92;0.80;;;6.50;99.90;;;;;;6344149;22;20022;-93
2022/12/06 13:51:24;;;;;;;3.83;1.13;;;6.40;99.90;;;;;;6372167;22;20054;-94
2022/12/06 13:54:11;;;;;;;2.88;0.90;;;6.40;99.90;;;;;;6318263;22;20055;-91
2022/12/06 13:56:39;;;;;;;2.67;0.90;;;6.30;99.90;;;;;;6318326;22;20470;-91
2022/12/06 13:59:24;;;;;;;2.75;0.90;;;6.30;99.90;;;;;;6317660;22;20010;-90
2022/12/06 14:01:55;;;;;;;3.05;0.90;;;6.30;99.90;;;;;;6317767;22;20021;-91
2022/12/06 14:07:12;;;;;;;4.03;0.90;;;6.30;99.90;;;;;;6371666;22;20030;-93
2022/12/06 14:09:44;;;;;;;2.97;1.10;;;6.20;99.90;;;;;;6317790;22;20355;-92
2022/12/06 14:12:21;;;;;;;6.32;4.80;;;6.20;99.90;;;;;;6317393;22;20064;-89
2022/12/06 14:14:59;;;;;;;4.70;1.23;;;6.20;99.90;;;;;;6343438;22;20018;-93
2022/12/06 14:17:40;;;;;;;2.63;1.02;;;6.20;99.90;;;;;;6317530;22;20500;-89
2022/12/06 14:22:46;;;;;;;2.88;1.30;;;6.20;99.90;;;;;;6337688;22;20020;-90
2022/12/06 14:25:25;;;;;;;3.50;1.05;;;6.20;99.90;;;;;;6256164;22;20062;-89
2022/12/06 14:28:01;;;;;;;3.22;0.93;;;6.10;99.90;;;;;;6281549;22;20551;-95
2022/12/06 14:30:27;;;;;;;2.15;1.13;;;6.20;99.90;;;;;;6255974;22;20015;-92
2022/12/06 14:32:55;;;;;;;5.85;2.20;;;6.20;99.90;;;;;;6255972;22;20042;-89
2022/12/06 14:35:34;;;;;;;2.10;1.00;;;6.20;99.90;;;;;;6256391;22;20404;-88
2022/12/06 14:38:22;;;;;;;2.67;1.00;;;6.20;99.90;;;;;;6255371;22;20018;-88
2022/12/06 14:43:34;;;;;;;3.10;0.90;;;6.20;99.90;;;;;;6281317;22;20015;-89
2022/12/06 14:46:02;;;;;;;3.05;0.95;;;6.20;99.90;;;;;;6230760;22;20109;-93
2022/12/06 14:50:22;;;;;;;2.63;0.85;;;6.10;99.90;;;;;;6255764;22;20061;-90
2022/12/06 14:51:26;;;;;;;3.55;1.73;;;6.20;99.90;;;;;;6283997;22;20030;-89
2022/12/06 14:53:52;;;;;;;4.15;1.55;;;6.10;99.90;;;;;;6258698;22;20047;-90
2022/12/06 14:56:30;;;;;;;3.78;1.20;;;6.20;99.90;;;;;;6259492;22;20022;-90
2022/12/06 14:59:18;;;;;;;4.53;0.90;;;6.20;99.90;;;;;;6255508;22;20007;-89
2022/12/06 15:01:55;;;;;;;1.67;0.85;;;6.20;99.90;;;;;;6255448;22;20047;-89
2022/12/06 15:04:33;;;;;;;2.05;0.80;;;6.20;99.90;;;;;;6254963;22;20018;-89
2022/12/06 15:06:59;;;;;;;3.50;0.85;;;6.20;99.90;;;;;;6256600;22;20019;-88
2022/12/06 15:09:32;;;;;;;3.90;0.87;;;6.20;99.90;;;;;;6231314;22;20068;-88
2022/12/06 15:19:35;;;;;;;;;;;;;;;;;;;;;
2022/12/06 15:22:26;;;;;;;1.88;0.65;;;6.10;99.90;;;;;;6281046;22;20090;-92
2022/12/06 15:24:59;;;;;;;;;;;6.10;99.90;;;;;;6256739;22;20483;-91
2022/12/06 15:27:26;;;;;;;2.10;0.75;;;6.10;99.90;;;;;;6307300;22;19915;-95
2022/12/06 15:30:00;;;;;;;3.65;0.90;;;6.10;99.90;;;;;;6255885;22;20019;-93
2022/12/06 15:32:50;;;;;;;2.13;0.60;;;6.10;99.90;;;;;;6231714;22;20015;-91
2022/12/06 15:35:17;;;;;;;1.90;0.80;;;6.10;99.90;;;;;;6255721;22;20055;-91
2022/12/06 15:37:48;;;;;;;;;;;6.00;99.90;;;;;;6256008;22;20033;-94
2022/12/06 15:40:17;;;;;;;2.35;0.88;;;6.00;99.90;;;;;;6282534;22;19915;-95
2022/12/06 15:42:42;;;;;;;2.43;0.80;;;6.00;99.90;;;;;;6255848;22;20121;-96
2022/12/06 15:45:14;;;;;;;1.97;0.70;;;6.00;99.90;;;;;;6255920;22;20077;-91
2022/12/06 15:47:39;;;;;;;2.08;0.80;;;6.00;99.90;;;;;;6255826;22;20046;-91
2022/12/06 15:50:06;;;;;;;2.13;0.80;;;5.90;99.90;;;;;;6256542;22;20015;-93
2022/12/06 17:34:21;;;;;;;24.70;11.25;;;5.30;99.90;;;;;;6406683;22;20025;-90
2022/12/06 17:37:56;;;;;;;12.10;6.18;;;5.20;99.90;;;;;;6375476;22;20514;-90
2022/12/06 17:40:31;;;;;;;12.40;5.78;;;5.20;99.90;;;;;;6377014;22;20014;-95
2022/12/06 17:43:00;;;;;;;9.98;3.88;;;5.20;99.90;;;;;;6377523;22;20049;-92
2022/12/06 17:45:28;;;;;;;7.45;3.28;;;5.20;99.90;;;;;;6382413;22;20014;-90
2022/12/06 17:47:54;;;;;;;4.75;2.50;;;5.10;99.90;;;;;;6355880;22;20014;-88
2022/12/06 17:50:20;;;;;;;5.80;2.30;;;5.10;99.90;;;;;;6379637;22;20415;-88
2022/12/06 17:52:46;;;;;;;4.87;2.67;;;5.10;99.90;;;;;;6349672;22;20098;-90
2022/12/06 17:55:12;;;;;;;5.75;2.30;;;5.00;99.90;;;;;;6375502;22;20018;-87
2022/12/06 17:57:38;;;;;;;4.55;1.73;;;5.00;99.90;;;;;;6375846;22;20013;-89
2022/12/06 18:00:26;;;;;;;10.20;4.53;;;5.00;99.90;;;;;;6349264;22;20462;-88
2022/12/06 18:02:52;;;;;;;13.63;6.97;;;5.00;99.90;;;;;;6375806;22;20096;-89
2022/12/06 19:46:24;;;;;;;13.05;5.18;;;5.30;99.90;;;;;;6400463;22;20018;-92
2022/12/06 19:49:26;;;;;;;13.80;5.38;;;5.40;99.90;;;;;;6374655;22;20014;-90
2022/12/06 19:52:14;;;;;;;11.93;4.75;;;5.40;99.90;;;;;;6374185;22;20101;-91
2022/12/06 19:54:54;;;;;;;9.55;3.53;;;5.30;99.90;;;;;;6374613;22;20014;-90
2022/12/06 20:55:44;;;;;;;9.15;4.07;;;4.50;99.90;;;;;;6418222;22;20026;-93
2022/12/06 20:58:10;;;;;;;7.88;2.65;;;4.50;99.90;;;;;;6373312;22;20025;-95
2022/12/06 21:00:39;;;;;;;6.45;2.42;;;4.50;99.90;;;;;;6387566;22;20020;-95
2022/12/06 21:03:05;;;;;;;9.38;4.25;;;4.50;99.90;;;;;;6380811;22;20013;-94
2022/12/06 21:05:31;;;;;;;12.70;5.33;;;4.40;99.90;;;;;;6382104;22;20014;-92
2022/12/06 21:08:03;;;;;;;12.13;5.17;;;4.40;99.90;;;;;;6379206;22;20017;-94
2022/12/06 21:18:16;;;;;;;7.15;2.83;;;4.40;99.90;;;;;;6405101;22;20022;-88
2022/12/06 21:20:41;;;;;;;7.00;2.80;;;4.40;99.90;;;;;;6352374;22;20022;-88
2022/12/06 21:23:10;;;;;;;7.53;3.13;;;4.40;99.90;;;;;;6351496;22;20013;-88
2022/12/06 21:25:56;;;;;;;6.22;2.90;;;4.40;99.90;;;;;;6350284;22;20014;-89
2022/12/06 21:28:22;;;;;;;8.07;4.00;;;4.30;99.90;;;;;;6327857;22;20025;-90
2022/12/06 21:30:50;;;;;;;8.77;2.47;;;4.30;99.90;;;;;;6348315;22;20018;-89
2022/12/06 21:33:16;;;;;;;5.68;2.10;;;4.30;99.90;;;;;;6346170;22;20443;-90
2022/12/06 21:35:42;;;;;;;7.43;2.23;;;4.40;99.90;;;;;;6349121;22;20014;-89
2022/12/06 21:38:07;;;;;;;5.83;2.80;;;4.30;99.90;;;;;;6349486;22;20063;-89
2022/12/06 21:40:35;;;;;;;4.77;2.47;;;4.30;99.90;;;;;;6323593;22;20086;-89
2022/12/06 21:50:47;;;;;;;8.98;3.88;;;4.30;99.90;;;;;;6341183;22;20030;-94
2022/12/06 22:45:03;;;;;;;2.03;0.38;;;4.00;99.90;;;;;;6308185;22;20064;-86
